sensor_id;sensor_type;location;lat;lon;timestamp;P1;durP1;ratioP1;P2;durP2;ratioP2
4943;SDS011;2487;52.224;11.006;2022-09-13T00:00:52;0.40;;;0.40;;
4943;SDS011;2487;52.224;11.006;2022-09-13T00:03:19;0.40;;;0.40;;
4943;SDS011;2487;52.224;11.006;2022-09-13T00:05:45;0.40;;;0.40;;
4943;SDS011;2487;52.224;11.006;2022-09-13T00:08:11;0.40;;;0.40;;
4943;SDS011;2487;52.224;11.006;2022-09-13T00:10:39;0.40;;;0.40;;
4943;SDS011;2487;52.224;11.006;2022-09-13T00:13:06;0.40;;;0.40;;
4943;SDS011;2487;52.224;11.006;2022-09-13T00:15:33;0.40;;;0.40;;
4943;SDS011;2487;52.224;11.006;2022-09-13T00:17:59;0.40;;;0.40;;
4943;SDS011;2487;52.224;11.006;2022-09-13T00:20:25;0.40;;;0.40;;
4943;SDS011;2487;52.224;11.006;2022-09-13T00:22:51;0.40;;;0.40;;
4943;SDS011;2487;52.224;11.006;2022-09-13T00:25:17;0.40;;;0.40;;
4943;SDS011;2487;52.224;11.006;2022-09-13T00:27:43;0.40;;;0.40;;
4943;SDS011;2487;52.224;11.006;2022-09-13T00:30:09;0.40;;;0.40;;
4943;SDS011;2487;52.224;11.006;2022-09-13T00:32:36;0.40;;;0.40;;
4943;SDS011;2487;52.224;11.006;2022-09-13T00:35:03;0.40;;;0.40;;
4943;SDS011;2487;52.224;11.006;2022-09-13T00:37:30;0.40;;;0.40;;
4943;SDS011;2487;52.224;11.006;2022-09-13T00:40:00;5.80;;;0.80;;
4943;SDS011;2487;52.224;11.006;2022-09-13T00:42:27;0.60;;;0.60;;
4943;SDS011;2487;52.224;11.006;2022-09-13T00:49:58;2.17;;;0.70;;
4943;SDS011;2487;52.224;11.006;2022-09-13T00:52:28;2.70;;;0.77;;
4943;SDS011;2487;52.224;11.006;2022-09-13T00:55:40;4.93;;;0.60;;
4943;SDS011;2487;52.224;11.006;2022-09-13T00:57:47;1.00;;;0.60;;
4943;SDS011;2487;52.224;11.006;2022-09-13T01:00:15;0.40;;;0.40;;
4943;SDS011;2487;52.224;11.006;2022-09-13T01:02:43;0.40;;;0.40;;
4943;SDS011;2487;52.224;11.006;2022-09-13T01:05:18;0.50;;;0.50;;
4943;SDS011;2487;52.224;11.006;2022-09-13T01:07:46;0.50;;;0.50;;
4943;SDS011;2487;52.224;11.006;2022-09-13T01:10:12;1.30;;;0.70;;
4943;SDS011;2487;52.224;11.006;2022-09-13T01:15:08;1.60;;;0.70;;
4943;SDS011;2487;52.224;11.006;2022-09-13T01:17:34;12.90;;;0.90;;
4943;SDS011;2487;52.224;11.006;2022-09-13T01:20:00;11.80;;;0.90;;
4943;SDS011;2487;52.224;11.006;2022-09-13T01:22:43;6.00;;;0.80;;
4943;SDS011;2487;52.224;11.006;2022-09-13T01:42:45;38.53;;;1.20;;
4943;SDS011;2487;52.224;11.006;2022-09-13T01:56:19;35.67;;;1.10;;
4943;SDS011;2487;52.224;11.006;2022-09-13T01:58:53;35.53;;;1.10;;
4943;SDS011;2487;52.224;11.006;2022-09-13T02:01:45;23.50;;;1.00;;
4943;SDS011;2487;52.224;11.006;2022-09-13T02:04:36;0.50;;;0.50;;
4943;SDS011;2487;52.224;11.006;2022-09-13T02:09:39;9.10;;;0.90;;
4943;SDS011;2487;52.224;11.006;2022-09-13T02:12:14;1.17;;;0.50;;
4943;SDS011;2487;52.224;11.006;2022-09-13T02:14:45;3.10;;;0.77;;
4943;SDS011;2487;52.224;11.006;2022-09-13T02:17:21;0.90;;;0.60;;
4943;SDS011;2487;52.224;11.006;2022-09-13T02:19:56;6.13;;;0.80;;
4943;SDS011;2487;52.224;11.006;2022-09-13T02:22:32;1.60;;;0.70;;
4943;SDS011;2487;52.224;11.006;2022-09-13T02:25:04;1.30;;;0.70;;
4943;SDS011;2487;52.224;11.006;2022-09-13T02:27:34;6.53;;;0.80;;
4943;SDS011;2487;52.224;11.006;2022-09-13T02:30:04;16.27;;;0.90;;
4943;SDS011;2487;52.224;11.006;2022-09-13T02:32:33;12.93;;;0.90;;
4943;SDS011;2487;52.224;11.006;2022-09-13T02:35:10;12.90;;;0.90;;
4943;SDS011;2487;52.224;11.006;2022-09-13T02:37:39;1.80;;;0.70;;
4943;SDS011;2487;52.224;11.006;2022-09-13T02:40:09;1.13;;;0.83;;
4943;SDS011;2487;52.224;11.006;2022-09-13T02:42:40;0.00;;;0.00;;
4943;SDS011;2487;52.224;11.006;2022-09-13T02:45:08;15.13;;;0.93;;
4943;SDS011;2487;52.224;11.006;2022-09-13T02:47:40;0.50;;;0.50;;
4943;SDS011;2487;52.224;11.006;2022-09-13T02:50:24;3.60;;;1.17;;
4943;SDS011;2487;52.224;11.006;2022-09-13T02:59:03;20.77;;;1.10;;
4943;SDS011;2487;52.224;11.006;2022-09-13T03:01:37;4.37;;;0.50;;
4943;SDS011;2487;52.224;11.006;2022-09-13T03:04:05;0.50;;;0.50;;
4943;SDS011;2487;52.224;11.006;2022-09-13T03:06:32;17.37;;;1.00;;
4943;SDS011;2487;52.224;11.006;2022-09-13T03:08:58;19.47;;;1.00;;
4943;SDS011;2487;52.224;11.006;2022-09-13T03:14:26;1.73;;;0.70;;
4943;SDS011;2487;52.224;11.006;2022-09-13T03:30:42;0.63;;;0.60;;
4943;SDS011;2487;52.224;11.006;2022-09-13T03:35:55;0.50;;;0.50;;
4943;SDS011;2487;52.224;11.006;2022-09-13T03:38:30;0.50;;;0.50;;
4943;SDS011;2487;52.224;11.006;2022-09-13T03:41:11;0.60;;;0.60;;
4943;SDS011;2487;52.224;11.006;2022-09-13T03:43:47;0.50;;;0.50;;
4943;SDS011;2487;52.224;11.006;2022-09-13T03:46:29;0.50;;;0.50;;
4943;SDS011;2487;52.224;11.006;2022-09-13T03:49:09;0.50;;;0.50;;
4943;SDS011;2487;52.224;11.006;2022-09-13T03:51:38;0.50;;;0.50;;
4943;SDS011;2487;52.224;11.006;2022-09-13T03:54:13;0.50;;;0.50;;
4943;SDS011;2487;52.224;11.006;2022-09-13T03:56:42;0.50;;;0.50;;
4943;SDS011;2487;52.224;11.006;2022-09-13T03:59:08;2.50;;;0.70;;
4943;SDS011;2487;52.224;11.006;2022-09-13T04:01:34;2.20;;;0.70;;
4943;SDS011;2487;52.224;11.006;2022-09-13T04:03:59;2.00;;;0.70;;
4943;SDS011;2487;52.224;11.006;2022-09-13T04:06:25;1.50;;;0.70;;
4943;SDS011;2487;52.224;11.006;2022-09-13T04:08:51;1.40;;;0.70;;
4943;SDS011;2487;52.224;11.006;2022-09-13T04:11:16;1.30;;;0.70;;
4943;SDS011;2487;52.224;11.006;2022-09-13T04:13:42;1.40;;;0.70;;
4943;SDS011;2487;52.224;11.006;2022-09-13T04:16:08;1.27;;;0.70;;
4943;SDS011;2487;52.224;11.006;2022-09-13T04:18:34;1.10;;;0.70;;
4943;SDS011;2487;52.224;11.006;2022-09-13T04:21:00;24.90;;;1.00;;
4943;SDS011;2487;52.224;11.006;2022-09-13T04:23:27;17.87;;;0.90;;
4943;SDS011;2487;52.224;11.006;2022-09-13T04:25:54;18.20;;;1.00;;
4943;SDS011;2487;52.224;11.006;2022-09-13T04:28:20;17.53;;;1.00;;
4943;SDS011;2487;52.224;11.006;2022-09-13T04:30:47;16.27;;;0.90;;
4943;SDS011;2487;52.224;11.006;2022-09-13T04:33:14;15.13;;;0.90;;
4943;SDS011;2487;52.224;11.006;2022-09-13T04:35:41;10.40;;;0.90;;
4943;SDS011;2487;52.224;11.006;2022-09-13T04:38:07;0.77;;;0.63;;
4943;SDS011;2487;52.224;11.006;2022-09-13T04:40:34;0.20;;;0.20;;
4943;SDS011;2487;52.224;11.006;2022-09-13T04:43:01;0.53;;;0.53;;
4943;SDS011;2487;52.224;11.006;2022-09-13T04:45:27;0.40;;;0.40;;
4943;SDS011;2487;52.224;11.006;2022-09-13T04:47:53;0.50;;;0.50;;
4943;SDS011;2487;52.224;11.006;2022-09-13T04:50:21;1.27;;;0.70;;
4943;SDS011;2487;52.224;11.006;2022-09-13T04:52:48;0.07;;;0.07;;
4943;SDS011;2487;52.224;11.006;2022-09-13T04:55:14;1.60;;;0.70;;
4943;SDS011;2487;52.224;11.006;2022-09-13T04:57:40;1.70;;;0.70;;
4943;SDS011;2487;52.224;11.006;2022-09-13T05:00:06;2.00;;;0.70;;
4943;SDS011;2487;52.224;11.006;2022-09-13T05:02:33;0.90;;;0.70;;
4943;SDS011;2487;52.224;11.006;2022-09-13T05:04:58;0.70;;;0.60;;
4943;SDS011;2487;52.224;11.006;2022-09-13T05:07:24;0.60;;;0.60;;
4943;SDS011;2487;52.224;11.006;2022-09-13T05:09:50;1.10;;;0.70;;
4943;SDS011;2487;52.224;11.006;2022-09-13T05:12:16;2.07;;;0.70;;
4943;SDS011;2487;52.224;11.006;2022-09-13T05:14:42;0.93;;;0.70;;
4943;SDS011;2487;52.224;11.006;2022-09-13T05:17:07;1.40;;;0.70;;
4943;SDS011;2487;52.224;11.006;2022-09-13T05:19:33;0.60;;;0.60;;
4943;SDS011;2487;52.224;11.006;2022-09-13T05:21:59;6.00;;;0.80;;
4943;SDS011;2487;52.224;11.006;2022-09-13T05:24:26;5.50;;;0.80;;
4943;SDS011;2487;52.224;11.006;2022-09-13T05:26:51;11.30;;;0.90;;
4943;SDS011;2487;52.224;11.006;2022-09-13T05:29:17;10.83;;;0.90;;
4943;SDS011;2487;52.224;11.006;2022-09-13T05:31:43;13.50;;;0.90;;
4943;SDS011;2487;52.224;11.006;2022-09-13T05:34:10;8.80;;;0.90;;
4943;SDS011;2487;52.224;11.006;2022-09-13T05:36:38;12.40;;;0.90;;
4943;SDS011;2487;52.224;11.006;2022-09-13T05:39:05;11.13;;;0.90;;
4943;SDS011;2487;52.224;11.006;2022-09-13T05:41:31;11.53;;;0.90;;
4943;SDS011;2487;52.224;11.006;2022-09-13T05:43:56;10.97;;;0.90;;
4943;SDS011;2487;52.224;11.006;2022-09-13T05:46:22;12.27;;;0.90;;
4943;SDS011;2487;52.224;11.006;2022-09-13T05:48:48;11.00;;;0.90;;
4943;SDS011;2487;52.224;11.006;2022-09-13T05:51:15;11.13;;;0.90;;
4943;SDS011;2487;52.224;11.006;2022-09-13T05:53:46;12.07;;;0.90;;
4943;SDS011;2487;52.224;11.006;2022-09-13T05:56:14;12.33;;;0.90;;
4943;SDS011;2487;52.224;11.006;2022-09-13T05:58:41;12.73;;;0.90;;
4943;SDS011;2487;52.224;11.006;2022-09-13T06:01:09;13.17;;;0.90;;
4943;SDS011;2487;52.224;11.006;2022-09-13T06:03:35;12.67;;;0.90;;
4943;SDS011;2487;52.224;11.006;2022-09-13T06:06:02;13.40;;;0.90;;
4943;SDS011;2487;52.224;11.006;2022-09-13T06:08:29;16.67;;;0.93;;
4943;SDS011;2487;52.224;11.006;2022-09-13T06:10:57;15.73;;;0.90;;
4943;SDS011;2487;52.224;11.006;2022-09-13T06:13:23;20.27;;;1.00;;
4943;SDS011;2487;52.224;11.006;2022-09-13T06:15:49;10.47;;;0.90;;
4943;SDS011;2487;52.224;11.006;2022-09-13T06:18:15;9.47;;;0.90;;
4943;SDS011;2487;52.224;11.006;2022-09-13T06:20:42;0.50;;;0.50;;
4943;SDS011;2487;52.224;11.006;2022-09-13T06:23:09;0.50;;;0.50;;
4943;SDS011;2487;52.224;11.006;2022-09-13T06:25:34;0.50;;;0.50;;
4943;SDS011;2487;52.224;11.006;2022-09-13T06:28:00;1.00;;;0.70;;
4943;SDS011;2487;52.224;11.006;2022-09-13T06:30:26;0.50;;;0.50;;
4943;SDS011;2487;52.224;11.006;2022-09-13T06:32:52;0.50;;;0.50;;
4943;SDS011;2487;52.224;11.006;2022-09-13T06:35:20;0.50;;;0.50;;
4943;SDS011;2487;52.224;11.006;2022-09-13T06:37:46;0.50;;;0.50;;
4943;SDS011;2487;52.224;11.006;2022-09-13T06:40:11;0.50;;;0.50;;
4943;SDS011;2487;52.224;11.006;2022-09-13T06:42:38;0.50;;;0.50;;
4943;SDS011;2487;52.224;11.006;2022-09-13T06:45:04;0.50;;;0.50;;
4943;SDS011;2487;52.224;11.006;2022-09-13T06:47:30;0.40;;;0.40;;
4943;SDS011;2487;52.224;11.006;2022-09-13T06:49:56;12.30;;;1.30;;
4943;SDS011;2487;52.224;11.006;2022-09-13T06:52:23;1.00;;;0.70;;
4943;SDS011;2487;52.224;11.006;2022-09-13T06:54:49;0.80;;;0.70;;
4943;SDS011;2487;52.224;11.006;2022-09-13T06:57:15;0.60;;;0.60;;
4943;SDS011;2487;52.224;11.006;2022-09-13T06:59:41;0.60;;;0.60;;
4943;SDS011;2487;52.224;11.006;2022-09-13T07:02:08;0.60;;;0.60;;
4943;SDS011;2487;52.224;11.006;2022-09-13T07:04:34;0.60;;;0.60;;
4943;SDS011;2487;52.224;11.006;2022-09-13T07:06:59;0.60;;;0.60;;
4943;SDS011;2487;52.224;11.006;2022-09-13T07:09:25;0.60;;;0.60;;
4943;SDS011;2487;52.224;11.006;2022-09-13T07:11:53;0.60;;;0.60;;
4943;SDS011;2487;52.224;11.006;2022-09-13T07:14:23;0.60;;;0.60;;
4943;SDS011;2487;52.224;11.006;2022-09-13T07:16:51;16.23;;;0.93;;
4943;SDS011;2487;52.224;11.006;2022-09-13T07:19:19;1.17;;;0.70;;
4943;SDS011;2487;52.224;11.006;2022-09-13T07:21:52;8.23;;;0.80;;
4943;SDS011;2487;52.224;11.006;2022-09-13T07:24:19;0.60;;;0.60;;
4943;SDS011;2487;52.224;11.006;2022-09-13T07:26:46;34.47;;;1.97;;
4943;SDS011;2487;52.224;11.006;2022-09-13T07:29:13;16.37;;;2.80;;
4943;SDS011;2487;52.224;11.006;2022-09-13T07:31:42;0.50;;;0.50;;
4943;SDS011;2487;52.224;11.006;2022-09-13T07:34:19;0.40;;;0.40;;
4943;SDS011;2487;52.224;11.006;2022-09-13T07:36:46;0.40;;;0.40;;
4943;SDS011;2487;52.224;11.006;2022-09-13T07:39:13;3.07;;;0.70;;
4943;SDS011;2487;52.224;11.006;2022-09-13T07:41:39;2.10;;;0.70;;
4943;SDS011;2487;52.224;11.006;2022-09-13T07:44:05;0.90;;;0.70;;
4943;SDS011;2487;52.224;11.006;2022-09-13T07:46:32;1.77;;;0.70;;
4943;SDS011;2487;52.224;11.006;2022-09-13T07:49:04;4.70;;;0.80;;
4943;SDS011;2487;52.224;11.006;2022-09-13T07:51:34;5.80;;;0.80;;
4943;SDS011;2487;52.224;11.006;2022-09-13T07:54:02;8.67;;;0.90;;
4943;SDS011;2487;52.224;11.006;2022-09-13T07:56:35;5.40;;;0.80;;
4943;SDS011;2487;52.224;11.006;2022-09-13T07:59:04;5.77;;;0.80;;
4943;SDS011;2487;52.224;11.006;2022-09-13T08:01:41;9.60;;;0.90;;
4943;SDS011;2487;52.224;11.006;2022-09-13T08:04:09;7.40;;;0.90;;
4943;SDS011;2487;52.224;11.006;2022-09-13T08:06:37;6.00;;;0.80;;
4943;SDS011;2487;52.224;11.006;2022-09-13T08:09:04;11.03;;;0.90;;
4943;SDS011;2487;52.224;11.006;2022-09-13T08:11:36;9.67;;;0.90;;
4943;SDS011;2487;52.224;11.006;2022-09-13T08:14:03;12.43;;;0.90;;
4943;SDS011;2487;52.224;11.006;2022-09-13T08:16:31;12.03;;;0.90;;
4943;SDS011;2487;52.224;11.006;2022-09-13T08:19:01;11.57;;;0.90;;
4943;SDS011;2487;52.224;11.006;2022-09-13T08:21:32;10.43;;;0.90;;
4943;SDS011;2487;52.224;11.006;2022-09-13T08:24:03;9.50;;;0.90;;
4943;SDS011;2487;52.224;11.006;2022-09-13T08:26:53;8.43;;;0.90;;
4943;SDS011;2487;52.224;11.006;2022-09-13T08:29:19;9.67;;;0.90;;
4943;SDS011;2487;52.224;11.006;2022-09-13T08:31:45;11.67;;;0.90;;
4943;SDS011;2487;52.224;11.006;2022-09-13T08:34:11;14.07;;;0.90;;
4943;SDS011;2487;52.224;11.006;2022-09-13T08:36:38;13.53;;;0.90;;
4943;SDS011;2487;52.224;11.006;2022-09-13T08:39:05;14.93;;;0.90;;
4943;SDS011;2487;52.224;11.006;2022-09-13T08:46:41;20.77;;;1.00;;
4943;SDS011;2487;52.224;11.006;2022-09-13T08:49:16;23.13;;;1.00;;
4943;SDS011;2487;52.224;11.006;2022-09-13T08:51:45;6.53;;;0.90;;
4943;SDS011;2487;52.224;11.006;2022-09-13T08:54:14;0.50;;;0.50;;
4943;SDS011;2487;52.224;11.006;2022-09-13T09:07:49;0.30;;;0.30;;
4943;SDS011;2487;52.224;11.006;2022-09-13T09:13:07;0.40;;;0.40;;
4943;SDS011;2487;52.224;11.006;2022-09-13T09:15:39;0.40;;;0.40;;
4943;SDS011;2487;52.224;11.006;2022-09-13T09:20:39;0.40;;;0.40;;
4943;SDS011;2487;52.224;11.006;2022-09-13T09:23:12;0.30;;;0.30;;
4943;SDS011;2487;52.224;11.006;2022-09-13T09:25:38;0.40;;;0.40;;
4943;SDS011;2487;52.224;11.006;2022-09-13T09:28:13;0.40;;;0.40;;
4943;SDS011;2487;52.224;11.006;2022-09-13T09:30:54;0.40;;;0.40;;
4943;SDS011;2487;52.224;11.006;2022-09-13T09:36:14;0.40;;;0.40;;
4943;SDS011;2487;52.224;11.006;2022-09-13T09:38:42;0.30;;;0.30;;
4943;SDS011;2487;52.224;11.006;2022-09-13T09:41:11;0.30;;;0.30;;
4943;SDS011;2487;52.224;11.006;2022-09-13T09:43:40;0.40;;;0.40;;
4943;SDS011;2487;52.224;11.006;2022-09-13T09:46:10;0.40;;;0.40;;
4943;SDS011;2487;52.224;11.006;2022-09-13T09:49:13;0.30;;;0.30;;
4943;SDS011;2487;52.224;11.006;2022-09-13T09:51:57;12.60;;;0.90;;
4943;SDS011;2487;52.224;11.006;2022-09-13T09:54:24;13.50;;;0.90;;
4943;SDS011;2487;52.224;11.006;2022-09-13T09:56:53;10.83;;;0.90;;
4943;SDS011;2487;52.224;11.006;2022-09-13T09:59:24;1.70;;;0.70;;
4943;SDS011;2487;52.224;11.006;2022-09-13T10:01:52;15.73;;;0.90;;
4943;SDS011;2487;52.224;11.006;2022-09-13T10:04:22;20.00;;;1.00;;
4943;SDS011;2487;52.224;11.006;2022-09-13T10:06:49;16.70;;;1.00;;
4943;SDS011;2487;52.224;11.006;2022-09-13T10:09:31;15.67;;;0.90;;
4943;SDS011;2487;52.224;11.006;2022-09-13T10:11:58;15.63;;;0.90;;
4943;SDS011;2487;52.224;11.006;2022-09-13T10:22:22;1.30;;;0.70;;
4943;SDS011;2487;52.224;11.006;2022-09-13T10:24:49;1.90;;;1.20;;
4943;SDS011;2487;52.224;11.006;2022-09-13T10:27:27;0.40;;;0.40;;
4943;SDS011;2487;52.224;11.006;2022-09-13T10:29:55;0.40;;;0.40;;
4943;SDS011;2487;52.224;11.006;2022-09-13T10:32:24;0.40;;;0.40;;
4943;SDS011;2487;52.224;11.006;2022-09-13T10:34:51;0.40;;;0.40;;
4943;SDS011;2487;52.224;11.006;2022-09-13T10:37:21;0.40;;;0.40;;
4943;SDS011;2487;52.224;11.006;2022-09-13T10:42:49;0.40;;;0.40;;
4943;SDS011;2487;52.224;11.006;2022-09-13T10:45:20;0.40;;;0.40;;
4943;SDS011;2487;52.224;11.006;2022-09-13T10:47:49;0.40;;;0.40;;
4943;SDS011;2487;52.224;11.006;2022-09-13T10:50:24;0.40;;;0.40;;
4943;SDS011;2487;52.224;11.006;2022-09-13T10:52:53;0.40;;;0.40;;
4943;SDS011;2487;52.224;11.006;2022-09-13T10:55:29;0.40;;;0.40;;
4943;SDS011;2487;52.224;11.006;2022-09-13T11:28:45;0.40;;;0.40;;
4943;SDS011;2487;52.224;11.006;2022-09-13T11:42:32;0.40;;;0.40;;
4943;SDS011;2487;52.224;11.006;2022-09-13T11:56:01;0.40;;;0.40;;
4943;SDS011;2487;52.224;11.006;2022-09-13T12:01:19;1.33;;;0.70;;
4943;SDS011;2487;52.224;11.006;2022-09-13T12:09:04;0.40;;;0.40;;
4943;SDS011;2487;52.224;11.006;2022-09-13T12:11:37;0.50;;;0.50;;
4943;SDS011;2487;52.224;11.006;2022-09-13T12:14:12;0.50;;;0.50;;
4943;SDS011;2487;52.224;11.006;2022-09-13T12:16:45;0.60;;;0.60;;
4943;SDS011;2487;52.224;11.006;2022-09-13T12:21:40;0.50;;;0.50;;
4943;SDS011;2487;52.224;11.006;2022-09-13T12:32:02;0.50;;;0.50;;
4943;SDS011;2487;52.224;11.006;2022-09-13T12:34:34;0.50;;;0.50;;
4943;SDS011;2487;52.224;11.006;2022-09-13T12:37:15;0.50;;;0.50;;
4943;SDS011;2487;52.224;11.006;2022-09-13T13:01:15;6.43;;;1.63;;
4943;SDS011;2487;52.224;11.006;2022-09-13T13:08:52;0.50;;;0.50;;
4943;SDS011;2487;52.224;11.006;2022-09-13T13:11:22;0.50;;;0.50;;
4943;SDS011;2487;52.224;11.006;2022-09-13T13:18:57;0.50;;;0.50;;
4943;SDS011;2487;52.224;11.006;2022-09-13T13:21:35;0.60;;;0.60;;
4943;SDS011;2487;52.224;11.006;2022-09-13T13:24:48;0.60;;;0.60;;
4943;SDS011;2487;52.224;11.006;2022-09-13T13:26:52;0.60;;;0.60;;
4943;SDS011;2487;52.224;11.006;2022-09-13T13:29:29;0.60;;;0.60;;
4943;SDS011;2487;52.224;11.006;2022-09-13T13:34:43;0.60;;;0.60;;
4943;SDS011;2487;52.224;11.006;2022-09-13T13:39:36;0.90;;;0.70;;
4943;SDS011;2487;52.224;11.006;2022-09-13T14:00:03;1.20;;;0.70;;
4943;SDS011;2487;52.224;11.006;2022-09-13T14:05:17;1.40;;;0.70;;
4943;SDS011;2487;52.224;11.006;2022-09-13T14:17:31;7.63;;;0.80;;
4943;SDS011;2487;52.224;11.006;2022-09-13T14:19:59;11.97;;;0.90;;
4943;SDS011;2487;52.224;11.006;2022-09-13T14:22:29;11.97;;;0.90;;
4943;SDS011;2487;52.224;11.006;2022-09-13T14:24:56;12.13;;;0.90;;
4943;SDS011;2487;52.224;11.006;2022-09-13T14:27:36;12.07;;;0.90;;
4943;SDS011;2487;52.224;11.006;2022-09-13T14:32:49;12.17;;;0.90;;
4943;SDS011;2487;52.224;11.006;2022-09-13T14:35:28;11.97;;;0.90;;
4943;SDS011;2487;52.224;11.006;2022-09-13T14:37:54;18.03;;;0.90;;
4943;SDS011;2487;52.224;11.006;2022-09-13T14:40:40;9.50;;;1.33;;
4943;SDS011;2487;52.224;11.006;2022-09-13T14:43:16;1.50;;;0.70;;
4943;SDS011;2487;52.224;11.006;2022-09-13T14:45:46;6.03;;;1.10;;
4943;SDS011;2487;52.224;11.006;2022-09-13T14:50:49;7.20;;;3.13;;
4943;SDS011;2487;52.224;11.006;2022-09-13T14:53:23;0.60;;;0.60;;
4943;SDS011;2487;52.224;11.006;2022-09-13T14:55:52;0.40;;;0.40;;
4943;SDS011;2487;52.224;11.006;2022-09-13T14:58:23;9.17;;;0.90;;
4943;SDS011;2487;52.224;11.006;2022-09-13T15:03:27;6.40;;;0.80;;
4943;SDS011;2487;52.224;11.006;2022-09-13T15:05:57;7.80;;;0.80;;
4943;SDS011;2487;52.224;11.006;2022-09-13T15:10:57;6.10;;;1.57;;
4943;SDS011;2487;52.224;11.006;2022-09-13T15:13:23;1.20;;;0.70;;
4943;SDS011;2487;52.224;11.006;2022-09-13T15:15:50;1.27;;;0.70;;
4943;SDS011;2487;52.224;11.006;2022-09-13T15:23:17;1.37;;;0.70;;
4943;SDS011;2487;52.224;11.006;2022-09-13T15:25:48;0.70;;;0.60;;
4943;SDS011;2487;52.224;11.006;2022-09-13T15:28:20;0.40;;;0.40;;
4943;SDS011;2487;52.224;11.006;2022-09-13T15:30:53;0.40;;;0.40;;
4943;SDS011;2487;52.224;11.006;2022-09-13T15:36:12;4.10;;;0.70;;
4943;SDS011;2487;52.224;11.006;2022-09-13T15:41:37;0.40;;;0.40;;
4943;SDS011;2487;52.224;11.006;2022-09-13T15:44:05;0.40;;;0.40;;
4943;SDS011;2487;52.224;11.006;2022-09-13T15:46:42;0.57;;;0.57;;
4943;SDS011;2487;52.224;11.006;2022-09-13T15:49:12;0.40;;;0.40;;
4943;SDS011;2487;52.224;11.006;2022-09-13T15:51:41;0.40;;;0.40;;
4943;SDS011;2487;52.224;11.006;2022-09-13T15:54:12;0.40;;;0.40;;
4943;SDS011;2487;52.224;11.006;2022-09-13T15:56:41;12.60;;;0.90;;
4943;SDS011;2487;52.224;11.006;2022-09-13T15:59:12;0.40;;;0.40;;
4943;SDS011;2487;52.224;11.006;2022-09-13T16:01:40;0.40;;;0.40;;
4943;SDS011;2487;52.224;11.006;2022-09-13T16:04:07;3.53;;;0.77;;
4943;SDS011;2487;52.224;11.006;2022-09-13T16:06:33;1.27;;;0.60;;
4943;SDS011;2487;52.224;11.006;2022-09-13T16:08:59;3.40;;;0.60;;
4943;SDS011;2487;52.224;11.006;2022-09-13T16:11:26;23.27;;;1.00;;
4943;SDS011;2487;52.224;11.006;2022-09-13T16:13:54;28.20;;;1.00;;
4943;SDS011;2487;52.224;11.006;2022-09-13T16:16:20;27.10;;;1.10;;
4943;SDS011;2487;52.224;11.006;2022-09-13T16:18:45;18.97;;;0.90;;
4943;SDS011;2487;52.224;11.006;2022-09-13T16:21:11;19.57;;;1.00;;
4943;SDS011;2487;52.224;11.006;2022-09-13T16:23:37;14.70;;;0.90;;
4943;SDS011;2487;52.224;11.006;2022-09-13T16:26:02;13.93;;;0.90;;
4943;SDS011;2487;52.224;11.006;2022-09-13T16:28:29;14.97;;;0.90;;
4943;SDS011;2487;52.224;11.006;2022-09-13T16:30:55;9.10;;;0.90;;
4943;SDS011;2487;52.224;11.006;2022-09-13T16:33:21;6.17;;;0.80;;
4943;SDS011;2487;52.224;11.006;2022-09-13T16:35:47;6.40;;;0.90;;
4943;SDS011;2487;52.224;11.006;2022-09-13T16:38:13;5.70;;;0.80;;
4943;SDS011;2487;52.224;11.006;2022-09-13T16:40:39;6.23;;;0.80;;
4943;SDS011;2487;52.224;11.006;2022-09-13T16:43:06;12.97;;;0.90;;
4943;SDS011;2487;52.224;11.006;2022-09-13T16:45:32;0.50;;;0.50;;
4943;SDS011;2487;52.224;11.006;2022-09-13T16:47:58;0.40;;;0.40;;
4943;SDS011;2487;52.224;11.006;2022-09-13T16:50:23;0.40;;;0.40;;
4943;SDS011;2487;52.224;11.006;2022-09-13T16:52:49;1.97;;;0.70;;
4943;SDS011;2487;52.224;11.006;2022-09-13T16:55:15;0.40;;;0.40;;
4943;SDS011;2487;52.224;11.006;2022-09-13T16:57:41;0.40;;;0.40;;
4943;SDS011;2487;52.224;11.006;2022-09-13T17:00:12;0.40;;;0.40;;
4943;SDS011;2487;52.224;11.006;2022-09-13T17:02:38;2.00;;;0.70;;
4943;SDS011;2487;52.224;11.006;2022-09-13T17:05:04;0.50;;;0.50;;
4943;SDS011;2487;52.224;11.006;2022-09-13T17:07:32;0.50;;;0.50;;
4943;SDS011;2487;52.224;11.006;2022-09-13T17:09:57;1.17;;;0.57;;
4943;SDS011;2487;52.224;11.006;2022-09-13T17:12:23;0.40;;;0.40;;
4943;SDS011;2487;52.224;11.006;2022-09-13T17:14:49;2.03;;;0.70;;
4943;SDS011;2487;52.224;11.006;2022-09-13T17:17:16;0.40;;;0.40;;
4943;SDS011;2487;52.224;11.006;2022-09-13T17:19:42;0.40;;;0.40;;
4943;SDS011;2487;52.224;11.006;2022-09-13T17:22:08;1.20;;;0.70;;
4943;SDS011;2487;52.224;11.006;2022-09-13T17:24:36;0.90;;;0.70;;
4943;SDS011;2487;52.224;11.006;2022-09-13T17:27:02;0.80;;;0.70;;
4943;SDS011;2487;52.224;11.006;2022-09-13T17:29:31;0.90;;;0.70;;
4943;SDS011;2487;52.224;11.006;2022-09-13T17:31:57;0.80;;;0.70;;
4943;SDS011;2487;52.224;11.006;2022-09-13T17:34:24;0.70;;;0.60;;
4943;SDS011;2487;52.224;11.006;2022-09-13T17:36:50;0.70;;;0.60;;
4943;SDS011;2487;52.224;11.006;2022-09-13T17:39:16;0.50;;;0.50;;
4943;SDS011;2487;52.224;11.006;2022-09-13T17:41:43;7.13;;;0.80;;
4943;SDS011;2487;52.224;11.006;2022-09-13T17:44:09;0.40;;;0.40;;
4943;SDS011;2487;52.224;11.006;2022-09-13T17:46:36;1.50;;;0.90;;
4943;SDS011;2487;52.224;11.006;2022-09-13T17:49:02;1.70;;;0.70;;
4943;SDS011;2487;52.224;11.006;2022-09-13T17:51:28;0.90;;;0.53;;
4943;SDS011;2487;52.224;11.006;2022-09-13T17:53:56;0.40;;;0.40;;
4943;SDS011;2487;52.224;11.006;2022-09-13T17:56:25;17.80;;;1.00;;
4943;SDS011;2487;52.224;11.006;2022-09-13T17:58:54;13.10;;;0.90;;
4943;SDS011;2487;52.224;11.006;2022-09-13T18:01:20;8.30;;;0.90;;
4943;SDS011;2487;52.224;11.006;2022-09-13T18:03:46;3.47;;;0.80;;
4943;SDS011;2487;52.224;11.006;2022-09-13T18:06:12;0.87;;;0.47;;
4943;SDS011;2487;52.224;11.006;2022-09-13T18:08:39;0.40;;;0.40;;
4943;SDS011;2487;52.224;11.006;2022-09-13T18:11:09;2.57;;;1.10;;
4943;SDS011;2487;52.224;11.006;2022-09-13T18:13:37;0.50;;;0.50;;
4943;SDS011;2487;52.224;11.006;2022-09-13T18:16:24;1.63;;;0.63;;
4943;SDS011;2487;52.224;11.006;2022-09-13T18:18:51;0.90;;;0.40;;
4943;SDS011;2487;52.224;11.006;2022-09-13T18:21:18;11.87;;;0.83;;
4943;SDS011;2487;52.224;11.006;2022-09-13T18:23:46;0.40;;;0.40;;
4943;SDS011;2487;52.224;11.006;2022-09-13T18:26:16;0.40;;;0.40;;
4943;SDS011;2487;52.224;11.006;2022-09-13T18:28:43;0.40;;;0.40;;
4943;SDS011;2487;52.224;11.006;2022-09-13T18:31:11;0.30;;;0.30;;
4943;SDS011;2487;52.224;11.006;2022-09-13T18:33:38;0.30;;;0.30;;
4943;SDS011;2487;52.224;11.006;2022-09-13T18:36:07;0.30;;;0.30;;
4943;SDS011;2487;52.224;11.006;2022-09-13T18:38:41;0.30;;;0.30;;
4943;SDS011;2487;52.224;11.006;2022-09-13T18:43:38;0.30;;;0.30;;
4943;SDS011;2487;52.224;11.006;2022-09-13T18:46:06;0.30;;;0.30;;
4943;SDS011;2487;52.224;11.006;2022-09-13T18:48:34;0.30;;;0.30;;
4943;SDS011;2487;52.224;11.006;2022-09-13T18:51:02;0.30;;;0.30;;
4943;SDS011;2487;52.224;11.006;2022-09-13T18:53:29;0.30;;;0.30;;
4943;SDS011;2487;52.224;11.006;2022-09-13T18:55:59;0.30;;;0.30;;
4943;SDS011;2487;52.224;11.006;2022-09-13T18:58:25;0.40;;;0.40;;
4943;SDS011;2487;52.224;11.006;2022-09-13T19:01:07;0.30;;;0.30;;
4943;SDS011;2487;52.224;11.006;2022-09-13T19:03:33;0.33;;;0.33;;
4943;SDS011;2487;52.224;11.006;2022-09-13T19:06:07;0.30;;;0.30;;
4943;SDS011;2487;52.224;11.006;2022-09-13T19:08:39;0.30;;;0.30;;
4943;SDS011;2487;52.224;11.006;2022-09-13T19:11:05;0.30;;;0.30;;
4943;SDS011;2487;52.224;11.006;2022-09-13T19:13:31;0.40;;;0.40;;
4943;SDS011;2487;52.224;11.006;2022-09-13T19:15:58;0.30;;;0.30;;
4943;SDS011;2487;52.224;11.006;2022-09-13T19:18:28;0.30;;;0.30;;
4943;SDS011;2487;52.224;11.006;2022-09-13T19:21:01;0.30;;;0.30;;
4943;SDS011;2487;52.224;11.006;2022-09-13T19:23:29;0.33;;;0.33;;
4943;SDS011;2487;52.224;11.006;2022-09-13T19:26:01;0.40;;;0.40;;
4943;SDS011;2487;52.224;11.006;2022-09-13T19:28:29;0.40;;;0.40;;
4943;SDS011;2487;52.224;11.006;2022-09-13T19:31:00;0.40;;;0.40;;